createdAt,value
2019-05-01T00:01:27.091Z,99.90
2019-05-01T00:04:16.193Z,99.90
2019-05-01T00:06:49.697Z,99.90
2019-05-01T00:09:21.171Z,99.90
2019-05-01T00:11:51.293Z,99.90
2019-05-01T00:14:22.076Z,99.90
2019-05-01T00:16:52.218Z,99.90
2019-05-01T00:19:22.356Z,99.90
2019-05-01T00:21:52.472Z,99.90
2019-05-01T00:24:22.659Z,99.90
2019-05-01T00:26:52.695Z,99.90
2019-05-01T00:29:22.714Z,99.90
2019-05-01T00:31:52.808Z,99.90
2019-05-01T00:34:22.973Z,99.90
2019-05-01T00:36:53.041Z,99.90
2019-05-01T00:39:23.089Z,99.90
2019-05-01T00:41:53.196Z,99.90
2019-05-01T00:44:35.237Z,99.90
2019-05-01T00:47:05.427Z,99.90
2019-05-01T00:49:35.448Z,99.90
2019-05-01T00:52:05.513Z,99.90
2019-05-01T00:54:37.190Z,99.90
2019-05-01T00:57:26.260Z,99.90
2019-05-01T01:00:18.428Z,99.90
2019-05-01T01:02:51.145Z,99.90
2019-05-01T01:05:33.914Z,99.90
2019-05-01T01:08:04.518Z,99.90
2019-05-01T01:10:34.911Z,99.90
2019-05-01T01:13:05.016Z,99.90
2019-05-01T01:15:35.146Z,99.90
2019-05-01T01:18:05.510Z,99.90
2019-05-01T01:20:35.654Z,99.90
2019-05-01T01:23:05.763Z,99.90
2019-05-01T01:25:35.992Z,99.90
2019-05-01T01:28:06.391Z,99.90
2019-05-01T01:30:36.413Z,99.90
2019-05-01T01:33:06.630Z,99.90
2019-05-01T01:35:36.726Z,99.90
2019-05-01T01:38:06.912Z,99.90
2019-05-01T01:40:37.115Z,99.90
2019-05-01T01:43:25.294Z,99.90
2019-05-01T01:45:56.662Z,99.90
2019-05-01T01:48:27.140Z,99.90
2019-05-01T01:50:57.309Z,99.90
2019-05-01T01:53:27.645Z,99.90
2019-05-01T01:55:57.879Z,99.90
2019-05-01T01:58:28.274Z,99.90
2019-05-01T02:01:23.739Z,99.90
2019-05-01T02:03:58.570Z,99.90
2019-05-01T02:06:28.769Z,99.90
2019-05-01T02:08:58.822Z,99.90
2019-05-01T02:11:29.042Z,99.90
2019-05-01T02:13:59.264Z,99.90
2019-05-01T02:16:29.374Z,99.90
2019-05-01T02:18:59.411Z,99.90
2019-05-01T02:21:29.530Z,99.90
2019-05-01T02:23:59.576Z,99.90
2019-05-01T02:26:32.683Z,99.90
2019-05-01T02:29:10.224Z,99.90
2019-05-01T02:31:44.656Z,99.90
2019-05-01T02:34:15.289Z,99.90
2019-05-01T02:36:47.028Z,99.90
2019-05-01T02:39:19.401Z,99.90
2019-05-01T02:41:52.616Z,99.90
2019-05-01T02:44:31.706Z,99.90
2019-05-01T02:47:04.788Z,99.90
2019-05-01T02:49:53.155Z,99.90
2019-05-01T02:52:25.906Z,99.90
2019-05-01T02:54:58.307Z,99.90
2019-05-01T02:57:29.656Z,99.90
2019-05-01T03:00:00.111Z,99.90
2019-05-01T03:02:31.233Z,99.90
2019-05-01T03:05:01.743Z,99.90
2019-05-01T03:07:34.793Z,99.90
2019-05-01T03:10:09.170Z,99.90
2019-05-01T03:12:40.897Z,99.90
2019-05-01T03:15:13.154Z,99.90
2019-05-01T03:18:01.488Z,99.90
2019-05-01T03:20:38.706Z,99.90
2019-05-01T03:23:37.983Z,99.90
2019-05-01T03:26:08.312Z,99.90
2019-05-01T03:28:39.219Z,99.90
2019-05-01T03:31:09.730Z,99.90
2019-05-01T03:33:40.476Z,99.90
2019-05-01T03:36:10.997Z,99.90
2019-05-01T03:38:41.045Z,99.90
2019-05-01T03:41:11.350Z,99.90
2019-05-01T03:43:41.849Z,99.90
2019-05-01T03:46:11.993Z,99.90
2019-05-01T03:48:42.694Z,99.90
2019-05-01T03:51:13.181Z,99.90
2019-05-01T03:53:43.643Z,99.90
2019-05-01T03:56:14.838Z,99.90
2019-05-01T03:58:45.014Z,99.90
2019-05-01T04:01:22.124Z,99.90
2019-05-01T04:03:55.521Z,99.90
2019-05-01T04:06:25.801Z,99.90
2019-05-01T04:08:56.175Z,99.90
2019-05-01T04:11:26.387Z,99.90
2019-05-01T04:13:57.364Z,99.90
2019-05-01T04:16:28.661Z,99.90
2019-05-01T04:18:59.122Z,99.90
2019-05-01T04:21:34.031Z,99.90
2019-05-01T04:24:04.464Z,99.90
2019-05-01T04:26:34.751Z,99.90
2019-05-01T04:29:30.329Z,99.90
2019-05-01T04:32:13.078Z,99.90
2019-05-01T04:34:50.671Z,99.90
2019-05-01T04:37:21.818Z,99.90
2019-05-01T04:39:52.149Z,99.90
2019-05-01T04:42:22.691Z,99.90
2019-05-01T04:44:52.835Z,99.90
2019-05-01T04:47:23.156Z,99.90
2019-05-01T04:49:53.749Z,99.90
2019-05-01T04:52:24.081Z,99.90
2019-05-01T04:54:54.123Z,99.90
2019-05-01T04:57:24.662Z,99.90
2019-05-01T04:59:54.978Z,99.90
2019-05-01T05:02:34.337Z,99.90
2019-05-01T05:05:05.399Z,99.90
2019-05-01T05:07:36.170Z,99.90
2019-05-01T05:10:06.594Z,99.90
2019-05-01T05:12:50.741Z,99.90
2019-05-01T05:15:39.117Z,99.90
2019-05-01T05:18:09.888Z,99.90
2019-05-01T05:20:40.216Z,99.90
2019-05-01T05:23:10.588Z,99.90
2019-05-01T05:25:41.319Z,99.90
2019-05-01T05:28:12.696Z,99.90
2019-05-01T05:30:44.882Z,99.90
2019-05-01T05:33:18.917Z,99.90
2019-05-01T05:35:50.875Z,99.90
2019-05-01T05:38:46.734Z,99.90
2019-05-01T05:41:17.922Z,99.90
2019-05-01T05:43:48.575Z,99.90
2019-05-01T05:46:19.418Z,99.90
2019-05-01T05:48:49.783Z,99.90
2019-05-01T05:51:35.087Z,99.90
2019-05-01T05:54:14.070Z,99.90
2019-05-01T05:56:52.349Z,99.90
2019-05-01T05:59:27.284Z,99.90
2019-05-01T06:02:06.061Z,99.90
2019-05-01T06:05:13.545Z,99.90
2019-05-01T06:08:05.805Z,99.90
2019-05-01T06:10:43.296Z,99.90
2019-05-01T06:13:38.720Z,99.90
2019-05-01T06:16:24.815Z,99.90
2019-05-01T06:19:16.843Z,99.90
2019-05-01T06:22:10.430Z,99.90
2019-05-01T06:24:42.462Z,99.90
2019-05-01T06:27:15.066Z,99.90
2019-05-01T06:29:45.447Z,99.90
2019-05-01T06:32:28.841Z,99.90
2019-05-01T06:35:03.042Z,99.90
2019-05-01T06:38:01.978Z,99.90
2019-05-01T06:40:40.745Z,99.90
2019-05-01T06:43:37.251Z,99.90
2019-05-01T06:46:27.390Z,99.90
2019-05-01T06:49:07.101Z,99.90
2019-05-01T06:51:47.977Z,99.90
2019-05-01T06:54:17.618Z,99.90
2019-05-01T06:56:50.065Z,99.90
2019-05-01T06:59:20.775Z,99.90
2019-05-01T07:01:53.196Z,99.90
2019-05-01T07:04:24.672Z,99.90
2019-05-01T07:06:55.287Z,99.90
2019-05-01T07:09:28.033Z,99.90
2019-05-01T07:11:58.453Z,99.90
2019-05-01T07:14:29.123Z,99.90
2019-05-01T07:16:59.560Z,99.90
2019-05-01T07:19:54.055Z,99.90
2019-05-01T07:22:24.241Z,99.90
2019-05-01T07:24:59.008Z,99.90
2019-05-01T07:27:38.432Z,99.90
2019-05-01T07:30:22.196Z,99.90
2019-05-01T07:32:52.444Z,99.90
2019-05-01T07:35:23.121Z,99.90
2019-05-01T07:37:53.349Z,99.90
2019-05-01T07:40:28.925Z,99.90
2019-05-01T07:43:01.813Z,99.90
2019-05-01T07:45:49.953Z,99.90
2019-05-01T07:48:27.695Z,99.90
2019-05-01T07:51:01.887Z,99.90
2019-05-01T07:53:33.336Z,99.90
2019-05-01T07:56:04.421Z,99.90
2019-05-01T07:58:35.118Z,99.90
2019-05-01T08:01:13.062Z,99.90
2019-05-01T08:03:42.643Z,99.90
2019-05-01T08:06:16.357Z,99.90
2019-05-01T08:08:45.686Z,99.90
2019-05-01T08:11:16.071Z,99.90
2019-05-01T08:13:46.276Z,99.90
2019-05-01T08:16:16.377Z,99.90
2019-05-01T08:18:54.304Z,99.90
2019-05-01T08:21:42.745Z,99.90
2019-05-01T08:24:12.873Z,99.90
2019-05-01T08:26:44.138Z,99.90
2019-05-01T08:29:32.569Z,99.90
2019-05-01T08:32:18.016Z,99.90
2019-05-01T08:34:49.446Z,99.90
2019-05-01T08:37:22.672Z,99.90
2019-05-01T08:39:51.660Z,99.90
2019-05-01T08:42:21.825Z,99.90
2019-05-01T08:45:19.824Z,99.90
2019-05-01T08:48:00.391Z,99.90
2019-05-01T08:50:29.302Z,99.90
2019-05-01T08:52:59.576Z,99.90
2019-05-01T08:55:33.329Z,99.90
2019-05-01T08:58:03.473Z,99.90
2019-05-01T09:00:36.438Z,99.90
2019-05-01T09:03:08.686Z,99.90
2019-05-01T09:05:37.283Z,99.90
2019-05-01T09:08:07.397Z,99.90
2019-05-01T09:10:37.490Z,99.90
2019-05-01T09:13:09.495Z,99.90
2019-05-01T09:15:43.649Z,99.90
2019-05-01T09:18:11.684Z,99.90
2019-05-01T09:20:43.651Z,99.90
2019-05-01T09:23:14.311Z,99.90
2019-05-01T09:25:53.030Z,99.90
2019-05-01T09:28:28.009Z,99.90
2019-05-01T09:31:02.216Z,99.90
2019-05-01T09:33:32.715Z,99.90
2019-05-01T09:36:03.000Z,99.90
2019-05-01T09:38:33.131Z,99.90
2019-05-01T09:41:03.428Z,99.90
2019-05-01T09:43:35.761Z,99.90
2019-05-01T09:46:08.403Z,99.90
2019-05-01T09:48:57.628Z,99.90
2019-05-01T09:51:42.530Z,99.90
2019-05-01T09:54:32.952Z,99.90
2019-05-01T09:57:03.419Z,99.90
2019-05-01T09:59:33.677Z,99.90
2019-05-01T10:02:07.781Z,99.90
2019-05-01T10:04:35.802Z,99.90
2019-05-01T10:07:08.095Z,99.90
2019-05-01T10:09:38.198Z,99.90
2019-05-01T10:12:11.550Z,99.90
2019-05-01T10:14:40.149Z,99.90
2019-05-01T10:17:13.505Z,99.90
2019-05-01T10:19:46.915Z,99.90
2019-05-01T10:22:17.061Z,99.90
2019-05-01T10:24:47.191Z,99.90
2019-05-01T10:27:20.381Z,99.90
2019-05-01T10:30:11.883Z,99.90
2019-05-01T10:32:52.851Z,99.90
2019-05-01T10:35:42.814Z,99.90
2019-05-01T10:38:12.553Z,99.90
2019-05-01T10:40:42.601Z,99.90
2019-05-01T10:43:12.838Z,99.90
2019-05-01T10:45:43.124Z,99.90
2019-05-01T10:48:13.371Z,99.90
2019-05-01T10:50:43.622Z,99.90
2019-05-01T10:53:13.992Z,99.90
2019-05-01T10:55:44.464Z,99.90
2019-05-01T10:58:18.521Z,99.90
2019-05-01T11:00:55.404Z,99.60
2019-05-01T11:03:25.658Z,99.40
2019-05-01T11:05:56.448Z,99.60
2019-05-01T11:08:27.093Z,99.70
2019-05-01T11:10:57.326Z,99.90
2019-05-01T11:13:27.421Z,99.10
2019-05-01T11:15:57.675Z,99.80
2019-05-01T11:18:27.919Z,99.90
2019-05-01T11:20:58.123Z,99.60
2019-05-01T11:23:28.418Z,99.90
2019-05-01T11:25:58.625Z,99.90
2019-05-01T11:28:30.477Z,98.90
2019-05-01T11:31:06.347Z,98.90
2019-05-01T11:34:01.576Z,99.30
2019-05-01T11:36:51.321Z,99.20
2019-05-01T11:39:29.187Z,99.20
2019-05-01T11:42:04.184Z,99.30
2019-05-01T11:44:34.306Z,99.90
2019-05-01T11:47:04.990Z,99.90
2019-05-01T11:49:35.253Z,99.90
2019-05-01T11:52:09.689Z,99.90
2019-05-01T11:54:41.700Z,99.90
2019-05-01T11:57:12.005Z,99.90
2019-05-01T11:59:43.523Z,99.90
2019-05-01T12:02:13.767Z,99.90
2019-05-01T12:04:44.035Z,99.90
2019-05-01T12:07:14.158Z,99.90
2019-05-01T12:09:44.321Z,99.90
2019-05-01T12:12:16.259Z,99.70
2019-05-01T12:14:46.330Z,99.60
2019-05-01T12:17:40.902Z,99.40
2019-05-01T12:20:11.444Z,99.70
2019-05-01T12:22:41.504Z,99.60
2019-05-01T12:25:11.957Z,99.70
2019-05-01T12:27:43.737Z,99.90
2019-05-01T12:30:15.677Z,99.90
2019-05-01T12:32:46.122Z,99.70
2019-05-01T12:35:17.045Z,99.90
2019-05-01T12:37:47.210Z,99.40
2019-05-01T12:40:19.353Z,99.00
2019-05-01T12:42:49.727Z,98.50
2019-05-01T12:45:19.978Z,97.50
2019-05-01T12:47:54.959Z,96.80
2019-05-01T12:50:25.151Z,96.90
2019-05-01T12:53:20.254Z,95.80
2019-05-01T12:56:15.493Z,96.10
2019-05-01T12:58:46.698Z,96.40
2019-05-01T13:01:16.799Z,97.10
2019-05-01T13:03:46.962Z,97.50
2019-05-01T13:06:17.100Z,98.00
2019-05-01T13:08:47.177Z,98.80
2019-05-01T13:11:17.307Z,99.10
2019-05-01T13:13:48.251Z,99.10
2019-05-01T13:16:18.735Z,99.00
2019-05-01T13:18:49.164Z,98.60
2019-05-01T13:21:19.237Z,98.40
2019-05-01T13:23:49.386Z,98.10
2019-05-01T13:26:28.778Z,97.80
2019-05-01T13:29:04.017Z,98.20
2019-05-01T13:31:53.149Z,98.60
2019-05-01T13:34:23.383Z,98.20
2019-05-01T13:37:02.698Z,98.10
2019-05-01T13:39:26.739Z,98.20
2019-05-01T13:41:56.812Z,98.70
2019-05-01T13:44:27.157Z,97.80
2019-05-01T13:46:57.229Z,97.30
2019-05-01T13:49:27.464Z,97.70
2019-05-01T13:51:57.693Z,98.40
2019-05-01T13:54:27.852Z,98.10
2019-05-01T13:56:57.984Z,97.40
2019-05-01T13:59:28.316Z,97.50
2019-05-01T14:01:58.358Z,97.40
2019-05-01T14:04:28.549Z,97.80
2019-05-01T14:06:58.665Z,98.00
2019-05-01T14:09:31.931Z,97.70
2019-05-01T14:12:02.255Z,98.10
2019-05-01T14:14:33.667Z,98.30
2019-05-01T14:17:03.798Z,98.40
2019-05-01T14:19:35.345Z,98.00
2019-05-01T14:22:33.547Z,97.90
2019-05-01T14:25:05.594Z,98.00
2019-05-01T14:27:36.188Z,98.60
2019-05-01T14:30:08.108Z,98.40
2019-05-01T14:32:38.246Z,97.80
2019-05-01T14:35:09.060Z,97.40
2019-05-01T14:37:39.416Z,97.70
2019-05-01T14:40:10.354Z,97.80
2019-05-01T14:42:40.456Z,97.40
2019-05-01T14:45:11.223Z,98.30
2019-05-01T14:47:41.252Z,97.30
2019-05-01T14:50:11.558Z,97.60
2019-05-01T14:52:41.752Z,97.40
2019-05-01T14:55:11.993Z,97.50
2019-05-01T14:57:42.077Z,97.40
2019-05-01T15:00:12.748Z,97.60
2019-05-01T15:02:43.123Z,98.20
2019-05-01T15:05:14.772Z,97.90
2019-05-01T15:07:44.816Z,98.00
2019-05-01T15:10:15.045Z,96.90
2019-05-01T15:12:46.811Z,96.10
2019-05-01T15:15:34.089Z,95.30
2019-05-01T15:18:10.206Z,94.80
2019-05-01T15:20:40.503Z,95.10
2019-05-01T15:23:10.623Z,94.90
2019-05-01T15:25:40.778Z,95.00
2019-05-01T15:28:11.133Z,95.10
2019-05-01T15:30:41.333Z,94.40
2019-05-01T15:33:11.547Z,95.00
2019-05-01T15:35:41.697Z,94.50
2019-05-01T15:38:11.828Z,94.80
2019-05-01T15:41:07.499Z,95.30
2019-05-01T15:43:40.755Z,96.10
2019-05-01T15:46:10.872Z,96.20
2019-05-01T15:48:40.945Z,95.80
2019-05-01T15:51:11.016Z,95.70
2019-05-01T15:53:41.143Z,96.20
2019-05-01T15:56:11.353Z,95.90
2019-05-01T15:58:41.557Z,95.90
2019-05-01T16:01:11.656Z,96.20
2019-05-01T16:03:41.798Z,96.60
2019-05-01T16:06:11.852Z,96.40
2019-05-01T16:08:42.003Z,96.20
2019-05-01T16:11:37.913Z,96.40
2019-05-01T16:14:07.979Z,95.30
2019-05-01T16:16:38.327Z,95.30
2019-05-01T16:19:08.597Z,95.10
2019-05-01T16:21:38.742Z,94.60
2019-05-01T16:24:08.823Z,94.80
2019-05-01T16:26:38.929Z,95.50
2019-05-01T16:29:09.020Z,95.90
2019-05-01T16:31:39.251Z,96.00
2019-05-01T16:34:09.451Z,96.40
2019-05-01T16:36:39.683Z,96.00
2019-05-01T16:39:33.464Z,96.00
2019-05-01T16:42:03.788Z,95.80
2019-05-01T16:44:33.967Z,95.50
2019-05-01T16:47:04.270Z,95.00
2019-05-01T16:49:34.421Z,94.70
2019-05-01T16:52:04.788Z,94.80
2019-05-01T16:54:35.023Z,94.70
2019-05-01T16:57:06.623Z,94.30
2019-05-01T16:59:36.801Z,94.60
2019-05-01T17:02:38.345Z,94.30
2019-05-01T17:05:26.298Z,94.60
2019-05-01T17:08:04.277Z,95.20
2019-05-01T17:10:36.465Z,95.20
2019-05-01T17:13:07.507Z,95.00
2019-05-01T17:15:41.860Z,94.70
2019-05-01T17:18:12.098Z,94.90
2019-05-01T17:20:42.382Z,95.40
2019-05-01T17:23:12.622Z,95.90
2019-05-01T17:25:43.111Z,96.60
2019-05-01T17:28:13.408Z,97.10
2019-05-01T17:30:55.513Z,97.70
2019-05-01T17:33:25.776Z,97.90
2019-05-01T17:35:56.279Z,98.30
2019-05-01T17:38:26.819Z,98.80
2019-05-01T17:41:00.065Z,98.90
2019-05-01T17:43:30.265Z,99.20
2019-05-01T17:46:00.422Z,99.40
2019-05-01T17:48:33.608Z,99.80
2019-05-01T17:51:02.499Z,99.90
2019-05-01T17:53:32.660Z,99.90
2019-05-01T17:56:04.765Z,99.90
2019-05-01T17:58:36.873Z,99.90
2019-05-01T18:01:27.704Z,99.90
2019-05-01T18:04:13.554Z,99.90
2019-05-01T18:06:46.682Z,99.90
2019-05-01T18:09:18.533Z,99.90
2019-05-01T18:11:52.270Z,99.90
2019-05-01T18:14:21.578Z,99.90
2019-05-01T18:16:51.793Z,99.90
2019-05-01T18:19:22.219Z,99.90
2019-05-01T18:22:02.527Z,99.90
2019-05-01T18:24:53.873Z,99.90
2019-05-01T18:27:41.598Z,99.90
2019-05-01T18:30:15.906Z,99.90
2019-05-01T18:32:52.065Z,99.90
2019-05-01T18:35:18.451Z,99.90
2019-05-01T18:37:56.066Z,99.90
2019-05-01T18:40:33.881Z,99.90
2019-05-01T18:43:04.694Z,99.90
2019-05-01T18:45:55.037Z,99.90
2019-05-01T18:48:26.034Z,99.90
2019-05-01T18:50:56.538Z,99.90
2019-05-01T18:53:26.723Z,99.90
2019-05-01T18:56:01.302Z,99.90
2019-05-01T18:58:39.875Z,99.90
2019-05-01T19:01:10.939Z,99.90
2019-05-01T19:03:42.471Z,99.90
2019-05-01T19:06:13.077Z,99.90
2019-05-01T19:08:43.433Z,99.90
2019-05-01T19:11:13.963Z,99.90
2019-05-01T19:13:44.155Z,99.90
2019-05-01T19:16:15.254Z,99.90
2019-05-01T19:18:45.700Z,99.90
2019-05-01T19:21:18.302Z,99.90
2019-05-01T19:23:48.763Z,99.90
2019-05-01T19:26:18.912Z,99.90
2019-05-01T19:28:49.219Z,99.90
2019-05-01T19:31:21.342Z,99.90
2019-05-01T19:33:51.261Z,99.90
2019-05-01T19:36:21.559Z,99.90
2019-05-01T19:38:52.116Z,99.90
2019-05-01T19:41:22.469Z,99.90
2019-05-01T19:43:52.600Z,99.90
2019-05-01T19:46:22.862Z,99.90
2019-05-01T19:48:53.181Z,99.90
2019-05-01T19:51:25.965Z,99.90
2019-05-01T19:53:56.135Z,99.90
2019-05-01T19:56:26.393Z,99.90
2019-05-01T19:58:56.541Z,99.90
2019-05-01T20:01:26.619Z,99.90
2019-05-01T20:03:56.867Z,99.90
2019-05-01T20:06:27.116Z,99.90
2019-05-01T20:08:57.301Z,99.90
2019-05-01T20:11:27.477Z,99.90
2019-05-01T20:13:57.954Z,99.90
2019-05-01T20:16:28.189Z,99.90
2019-05-01T20:18:58.324Z,99.90
2019-05-01T20:21:28.470Z,99.90
2019-05-01T20:23:59.598Z,99.90
2019-05-01T20:26:32.161Z,99.90
2019-05-01T20:29:01.517Z,99.90
2019-05-01T20:31:32.865Z,99.90
2019-05-01T20:34:03.308Z,99.90
2019-05-01T20:36:33.345Z,99.90
2019-05-01T20:39:06.325Z,99.90
2019-05-01T20:41:36.509Z,99.90
2019-05-01T20:44:06.607Z,99.90
2019-05-01T20:46:36.732Z,99.90
2019-05-01T20:49:06.889Z,99.90
2019-05-01T20:51:37.054Z,99.90
2019-05-01T20:54:07.144Z,99.90
2019-05-01T20:56:42.871Z,99.90
2019-05-01T20:59:12.953Z,99.90
2019-05-01T21:01:43.095Z,99.90
2019-05-01T21:04:30.183Z,99.90
2019-05-01T21:07:15.689Z,99.90
2019-05-01T21:09:47.779Z,99.90
2019-05-01T21:12:17.395Z,99.90
2019-05-01T21:14:49.711Z,99.90
2019-05-01T21:17:19.316Z,99.90
2019-05-01T21:19:49.459Z,99.90
2019-05-01T21:22:19.526Z,99.90
2019-05-01T21:24:49.687Z,99.90
2019-05-01T21:27:21.938Z,99.90
2019-05-01T21:29:53.358Z,99.90
2019-05-01T21:32:27.428Z,99.90
2019-05-01T21:34:55.380Z,99.90
2019-05-01T21:37:25.493Z,99.90
2019-05-01T21:39:55.526Z,99.90
2019-05-01T21:42:25.574Z,99.90
2019-05-01T21:44:55.719Z,99.90
2019-05-01T21:47:25.748Z,99.90
2019-05-01T21:49:57.499Z,99.90
2019-05-01T21:52:27.583Z,99.90
2019-05-01T21:54:59.977Z,99.90
2019-05-01T21:57:33.197Z,99.90
2019-05-01T22:00:05.552Z,99.90
2019-05-01T22:02:35.644Z,99.90
2019-05-01T22:05:06.023Z,99.90
2019-05-01T22:07:38.386Z,99.90
2019-05-01T22:10:08.743Z,99.90
2019-05-01T22:12:38.894Z,99.90
2019-05-01T22:15:26.109Z,99.90
2019-05-01T22:18:17.254Z,99.90
2019-05-01T22:21:06.612Z,99.90
2019-05-01T22:23:55.787Z,99.90
2019-05-01T22:26:27.929Z,99.90
2019-05-01T22:28:59.605Z,99.90
2019-05-01T22:31:58.801Z,99.90
2019-05-01T22:34:54.157Z,99.90
2019-05-01T22:37:24.907Z,99.90
2019-05-01T22:40:01.658Z,99.90
2019-05-01T22:42:31.821Z,99.90
2019-05-01T22:45:01.926Z,99.90
2019-05-01T22:47:32.064Z,99.90
2019-05-01T22:50:02.083Z,99.90
2019-05-01T22:52:35.221Z,99.90
2019-05-01T22:55:06.983Z,99.90
2019-05-01T22:57:37.028Z,99.90
2019-05-01T23:00:11.614Z,99.90
2019-05-01T23:02:42.031Z,99.90
2019-05-01T23:05:13.677Z,99.90
2019-05-01T23:07:44.527Z,99.90
2019-05-01T23:10:15.028Z,99.90
2019-05-01T23:12:45.162Z,99.90
2019-05-01T23:15:20.403Z,99.90
2019-05-01T23:17:50.607Z,99.90
2019-05-01T23:20:20.942Z,99.90
2019-05-01T23:22:50.962Z,99.90
2019-05-01T23:25:24.177Z,99.90
2019-05-01T23:27:54.447Z,99.90
2019-05-01T23:30:24.575Z,99.90
2019-05-01T23:32:55.007Z,99.90
2019-05-01T23:35:25.054Z,99.90
2019-05-01T23:37:55.168Z,99.90
2019-05-01T23:40:27.777Z,99.90
2019-05-01T23:43:00.234Z,99.90
2019-05-01T23:45:30.331Z,99.90
2019-05-01T23:48:00.850Z,99.90
2019-05-01T23:50:31.018Z,99.90
2019-05-01T23:53:01.136Z,99.90
2019-05-01T23:55:31.261Z,99.90
2019-05-01T23:58:01.430Z,99.90
